sensor_id;sensor_type;location;lat;lon;timestamp;P1;durP1;ratioP1;P2;durP2;ratioP2
62724;SDS011;49026;52.600;4.694;2023-04-06T00:01:53;25.67;;;13.20;;
62724;SDS011;49026;52.600;4.694;2023-04-06T00:04:18;26.23;;;11.40;;
62724;SDS011;49026;52.600;4.694;2023-04-06T00:06:44;28.40;;;14.05;;
62724;SDS011;49026;52.600;4.694;2023-04-06T00:09:09;21.70;;;10.80;;
62724;SDS011;49026;52.600;4.694;2023-04-06T00:11:34;34.83;;;13.98;;
62724;SDS011;49026;52.600;4.694;2023-04-06T00:14:02;28.50;;;14.85;;
62724;SDS011;49026;52.600;4.694;2023-04-06T00:16:27;27.88;;;13.80;;
62724;SDS011;49026;52.600;4.694;2023-04-06T00:18:55;30.48;;;15.20;;
62724;SDS011;49026;52.600;4.694;2023-04-06T00:21:20;24.73;;;13.88;;
62724;SDS011;49026;52.600;4.694;2023-04-06T00:23:45;28.52;;;14.57;;
62724;SDS011;49026;52.600;4.694;2023-04-06T00:26:15;26.98;;;13.98;;
62724;SDS011;49026;52.600;4.694;2023-04-06T00:28:41;27.85;;;13.95;;
62724;SDS011;49026;52.600;4.694;2023-04-06T00:31:17;29.15;;;14.75;;
62724;SDS011;49026;52.600;4.694;2023-04-06T00:33:42;32.20;;;15.48;;
62724;SDS011;49026;52.600;4.694;2023-04-06T00:36:07;27.27;;;15.30;;
62724;SDS011;49026;52.600;4.694;2023-04-06T00:38:33;29.08;;;14.00;;
62724;SDS011;49026;52.600;4.694;2023-04-06T00:41:00;30.70;;;15.93;;
62724;SDS011;49026;52.600;4.694;2023-04-06T00:43:28;28.05;;;15.07;;
62724;SDS011;49026;52.600;4.694;2023-04-06T00:45:53;30.85;;;15.35;;
62724;SDS011;49026;52.600;4.694;2023-04-06T00:48:18;29.30;;;14.68;;
62724;SDS011;49026;52.600;4.694;2023-04-06T00:50:46;43.50;;;16.02;;
62724;SDS011;49026;52.600;4.694;2023-04-06T00:53:12;27.50;;;14.85;;
62724;SDS011;49026;52.600;4.694;2023-04-06T00:55:38;30.30;;;13.73;;
62724;SDS011;49026;52.600;4.694;2023-04-06T00:58:03;33.20;;;15.02;;
62724;SDS011;49026;52.600;4.694;2023-04-06T01:00:29;31.55;;;13.73;;
62724;SDS011;49026;52.600;4.694;2023-04-06T01:02:55;37.67;;;15.85;;
62724;SDS011;49026;52.600;4.694;2023-04-06T01:05:20;24.42;;;11.50;;
62724;SDS011;49026;52.600;4.694;2023-04-06T01:07:46;24.02;;;13.35;;
62724;SDS011;49026;52.600;4.694;2023-04-06T01:10:11;28.83;;;11.60;;
62724;SDS011;49026;52.600;4.694;2023-04-06T01:12:52;25.77;;;11.88;;
62724;SDS011;49026;52.600;4.694;2023-04-06T01:15:17;15.68;;;8.90;;
62724;SDS011;49026;52.600;4.694;2023-04-06T01:17:42;24.52;;;12.07;;
62724;SDS011;49026;52.600;4.694;2023-04-06T01:20:08;18.55;;;9.85;;
62724;SDS011;49026;52.600;4.694;2023-04-06T01:22:33;18.30;;;9.00;;
62724;SDS011;49026;52.600;4.694;2023-04-06T01:25:01;19.95;;;9.98;;
62724;SDS011;49026;52.600;4.694;2023-04-06T01:27:26;17.02;;;9.43;;
62724;SDS011;49026;52.600;4.694;2023-04-06T01:29:53;22.70;;;10.43;;
62724;SDS011;49026;52.600;4.694;2023-04-06T01:32:18;12.98;;;7.65;;
62724;SDS011;49026;52.600;4.694;2023-04-06T01:34:43;18.40;;;10.05;;
62724;SDS011;49026;52.600;4.694;2023-04-06T01:37:09;21.15;;;9.60;;
62724;SDS011;49026;52.600;4.694;2023-04-06T01:39:34;20.45;;;9.60;;
62724;SDS011;49026;52.600;4.694;2023-04-06T01:42:02;16.10;;;8.35;;
62724;SDS011;49026;52.600;4.694;2023-04-06T01:44:27;18.85;;;8.15;;
62724;SDS011;49026;52.600;4.694;2023-04-06T01:46:55;15.48;;;9.02;;
62724;SDS011;49026;52.600;4.694;2023-04-06T01:49:24;20.70;;;8.45;;
62724;SDS011;49026;52.600;4.694;2023-04-06T01:51:49;18.52;;;10.25;;
62724;SDS011;49026;52.600;4.694;2023-04-06T01:54:17;19.73;;;10.50;;
62724;SDS011;49026;52.600;4.694;2023-04-06T01:56:42;23.30;;;10.63;;
62724;SDS011;49026;52.600;4.694;2023-04-06T01:59:08;28.88;;;10.75;;
62724;SDS011;49026;52.600;4.694;2023-04-06T02:01:35;20.48;;;11.57;;
62724;SDS011;49026;52.600;4.694;2023-04-06T02:04:00;22.23;;;11.05;;
62724;SDS011;49026;52.600;4.694;2023-04-06T02:06:25;19.65;;;10.45;;
62724;SDS011;49026;52.600;4.694;2023-04-06T02:08:51;21.00;;;9.40;;
62724;SDS011;49026;52.600;4.694;2023-04-06T02:11:17;20.10;;;11.13;;
62724;SDS011;49026;52.600;4.694;2023-04-06T02:13:42;18.02;;;9.45;;
62724;SDS011;49026;52.600;4.694;2023-04-06T02:16:10;21.88;;;10.45;;
62724;SDS011;49026;52.600;4.694;2023-04-06T02:18:35;19.17;;;9.90;;
62724;SDS011;49026;52.600;4.694;2023-04-06T02:21:03;20.23;;;9.15;;
62724;SDS011;49026;52.600;4.694;2023-04-06T02:23:28;17.10;;;9.90;;
62724;SDS011;49026;52.600;4.694;2023-04-06T02:25:53;18.20;;;9.05;;
62724;SDS011;49026;52.600;4.694;2023-04-06T02:28:19;13.75;;;7.80;;
62724;SDS011;49026;52.600;4.694;2023-04-06T02:30:44;17.55;;;9.02;;
62724;SDS011;49026;52.600;4.694;2023-04-06T02:33:09;16.83;;;10.00;;
62724;SDS011;49026;52.600;4.694;2023-04-06T02:35:37;18.55;;;9.55;;
62724;SDS011;49026;52.600;4.694;2023-04-06T02:38:04;18.75;;;9.75;;
62724;SDS011;49026;52.600;4.694;2023-04-06T02:40:30;17.52;;;9.10;;
62724;SDS011;49026;52.600;4.694;2023-04-06T02:42:57;14.93;;;8.40;;
62724;SDS011;49026;52.600;4.694;2023-04-06T02:45:22;15.98;;;8.75;;
62724;SDS011;49026;52.600;4.694;2023-04-06T02:47:50;16.25;;;9.13;;
62724;SDS011;49026;52.600;4.694;2023-04-06T02:50:15;15.85;;;8.88;;
62724;SDS011;49026;52.600;4.694;2023-04-06T02:52:42;15.98;;;8.35;;
62724;SDS011;49026;52.600;4.694;2023-04-06T02:55:07;13.13;;;7.22;;
62724;SDS011;49026;52.600;4.694;2023-04-06T02:57:33;17.38;;;6.47;;
62724;SDS011;49026;52.600;4.694;2023-04-06T02:59:58;14.20;;;7.95;;
62724;SDS011;49026;52.600;4.694;2023-04-06T03:02:24;15.68;;;8.68;;
62724;SDS011;49026;52.600;4.694;2023-04-06T03:04:49;13.25;;;7.25;;
62724;SDS011;49026;52.600;4.694;2023-04-06T03:07:14;14.13;;;7.50;;
62724;SDS011;49026;52.600;4.694;2023-04-06T03:09:40;12.05;;;7.05;;
62724;SDS011;49026;52.600;4.694;2023-04-06T03:12:05;15.63;;;6.78;;
62724;SDS011;49026;52.600;4.694;2023-04-06T03:14:31;16.33;;;7.95;;
62724;SDS011;49026;52.600;4.694;2023-04-06T03:16:58;17.00;;;8.32;;
62724;SDS011;49026;52.600;4.694;2023-04-06T03:19:24;13.98;;;6.45;;
62724;SDS011;49026;52.600;4.694;2023-04-06T03:21:51;15.15;;;6.97;;
62724;SDS011;49026;52.600;4.694;2023-04-06T03:24:19;13.95;;;6.93;;
62724;SDS011;49026;52.600;4.694;2023-04-06T03:26:47;14.43;;;7.72;;
62724;SDS011;49026;52.600;4.694;2023-04-06T03:29:12;12.45;;;7.43;;
62724;SDS011;49026;52.600;4.694;2023-04-06T03:31:38;11.70;;;7.10;;
62724;SDS011;49026;52.600;4.694;2023-04-06T03:34:03;17.52;;;8.02;;
62724;SDS011;49026;52.600;4.694;2023-04-06T03:36:31;13.30;;;6.75;;
62724;SDS011;49026;52.600;4.694;2023-04-06T03:38:56;9.20;;;5.32;;
62724;SDS011;49026;52.600;4.694;2023-04-06T03:41:24;12.77;;;6.95;;
62724;SDS011;49026;52.600;4.694;2023-04-06T03:43:49;14.95;;;7.53;;
62724;SDS011;49026;52.600;4.694;2023-04-06T03:46:15;15.80;;;8.82;;
62724;SDS011;49026;52.600;4.694;2023-04-06T03:48:40;15.82;;;7.53;;
62724;SDS011;49026;52.600;4.694;2023-04-06T03:51:08;10.98;;;6.10;;
62724;SDS011;49026;52.600;4.694;2023-04-06T03:53:34;16.75;;;7.82;;
62724;SDS011;49026;52.600;4.694;2023-04-06T03:56:02;16.58;;;8.02;;
62724;SDS011;49026;52.600;4.694;2023-04-06T03:58:27;12.18;;;6.63;;
62724;SDS011;49026;52.600;4.694;2023-04-06T04:00:52;14.52;;;7.80;;
62724;SDS011;49026;52.600;4.694;2023-04-06T04:03:21;15.32;;;8.35;;
62724;SDS011;49026;52.600;4.694;2023-04-06T04:05:48;11.10;;;6.30;;
62724;SDS011;49026;52.600;4.694;2023-04-06T04:08:15;15.02;;;8.98;;
62724;SDS011;49026;52.600;4.694;2023-04-06T04:10:41;15.77;;;9.30;;
62724;SDS011;49026;52.600;4.694;2023-04-06T04:13:06;13.43;;;7.65;;
62724;SDS011;49026;52.600;4.694;2023-04-06T04:15:33;17.98;;;7.88;;
62724;SDS011;49026;52.600;4.694;2023-04-06T04:17:59;13.82;;;7.57;;
62724;SDS011;49026;52.600;4.694;2023-04-06T04:20:24;15.32;;;7.65;;
62724;SDS011;49026;52.600;4.694;2023-04-06T04:22:52;14.43;;;7.50;;
62724;SDS011;49026;52.600;4.694;2023-04-06T04:25:17;18.50;;;7.70;;
62724;SDS011;49026;52.600;4.694;2023-04-06T04:27:42;17.98;;;7.28;;
62724;SDS011;49026;52.600;4.694;2023-04-06T04:30:08;18.80;;;8.23;;
62724;SDS011;49026;52.600;4.694;2023-04-06T04:32:36;14.18;;;6.85;;
62724;SDS011;49026;52.600;4.694;2023-04-06T04:35:01;17.05;;;8.85;;
62724;SDS011;49026;52.600;4.694;2023-04-06T04:37:27;15.57;;;8.50;;
62724;SDS011;49026;52.600;4.694;2023-04-06T04:39:55;14.77;;;8.57;;
62724;SDS011;49026;52.600;4.694;2023-04-06T04:42:20;17.73;;;9.40;;
62724;SDS011;49026;52.600;4.694;2023-04-06T04:44:46;16.30;;;8.65;;
62724;SDS011;49026;52.600;4.694;2023-04-06T04:47:11;16.70;;;8.00;;
62724;SDS011;49026;52.600;4.694;2023-04-06T04:49:36;19.65;;;9.35;;
62724;SDS011;49026;52.600;4.694;2023-04-06T04:52:04;15.20;;;8.27;;
62724;SDS011;49026;52.600;4.694;2023-04-06T04:54:29;20.58;;;9.10;;
62724;SDS011;49026;52.600;4.694;2023-04-06T04:56:54;15.23;;;8.60;;
62724;SDS011;49026;52.600;4.694;2023-04-06T04:59:20;18.27;;;9.20;;
62724;SDS011;49026;52.600;4.694;2023-04-06T05:01:45;18.83;;;9.18;;
62724;SDS011;49026;52.600;4.694;2023-04-06T05:04:10;20.45;;;9.82;;
62724;SDS011;49026;52.600;4.694;2023-04-06T05:06:38;17.13;;;9.13;;
62724;SDS011;49026;52.600;4.694;2023-04-06T05:09:03;18.80;;;9.38;;
62724;SDS011;49026;52.600;4.694;2023-04-06T05:11:28;19.42;;;9.30;;
62724;SDS011;49026;52.600;4.694;2023-04-06T05:13:54;14.52;;;6.70;;
62724;SDS011;49026;52.600;4.694;2023-04-06T05:16:19;14.88;;;9.23;;
62724;SDS011;49026;52.600;4.694;2023-04-06T05:18:45;17.30;;;8.75;;
62724;SDS011;49026;52.600;4.694;2023-04-06T05:21:14;19.92;;;9.38;;
62724;SDS011;49026;52.600;4.694;2023-04-06T05:23:39;20.23;;;8.35;;
62724;SDS011;49026;52.600;4.694;2023-04-06T05:26:05;21.30;;;9.07;;
62724;SDS011;49026;52.600;4.694;2023-04-06T05:28:30;9.13;;;5.40;;
62724;SDS011;49026;52.600;4.694;2023-04-06T05:30:56;15.13;;;7.68;;
62724;SDS011;49026;52.600;4.694;2023-04-06T05:33:25;17.70;;;9.63;;
62724;SDS011;49026;52.600;4.694;2023-04-06T05:35:54;23.15;;;10.88;;
62724;SDS011;49026;52.600;4.694;2023-04-06T05:38:20;20.50;;;9.50;;
62724;SDS011;49026;52.600;4.694;2023-04-06T05:40:45;14.63;;;6.15;;
62724;SDS011;49026;52.600;4.694;2023-04-06T05:43:10;15.77;;;6.03;;
62724;SDS011;49026;52.600;4.694;2023-04-06T05:45:36;16.67;;;9.93;;
62724;SDS011;49026;52.600;4.694;2023-04-06T05:48:01;18.13;;;9.15;;
62724;SDS011;49026;52.600;4.694;2023-04-06T05:50:27;21.15;;;10.23;;
62724;SDS011;49026;52.600;4.694;2023-04-06T05:52:55;17.58;;;10.65;;
62724;SDS011;49026;52.600;4.694;2023-04-06T05:55:20;22.77;;;10.10;;
62724;SDS011;49026;52.600;4.694;2023-04-06T05:57:48;19.13;;;8.73;;
62724;SDS011;49026;52.600;4.694;2023-04-06T06:00:13;22.90;;;8.30;;
62724;SDS011;49026;52.600;4.694;2023-04-06T06:02:41;18.38;;;9.25;;
62724;SDS011;49026;52.600;4.694;2023-04-06T06:05:07;15.32;;;8.25;;
62724;SDS011;49026;52.600;4.694;2023-04-06T06:07:35;20.80;;;10.88;;
62724;SDS011;49026;52.600;4.694;2023-04-06T06:10:01;18.55;;;8.80;;
62724;SDS011;49026;52.600;4.694;2023-04-06T06:12:26;24.58;;;9.45;;
62724;SDS011;49026;52.600;4.694;2023-04-06T06:14:52;22.20;;;9.60;;
62724;SDS011;49026;52.600;4.694;2023-04-06T06:17:19;17.35;;;9.15;;
62724;SDS011;49026;52.600;4.694;2023-04-06T06:19:45;20.05;;;9.73;;
62724;SDS011;49026;52.600;4.694;2023-04-06T06:22:12;20.15;;;10.35;;
62724;SDS011;49026;52.600;4.694;2023-04-06T06:24:38;17.35;;;9.93;;
62724;SDS011;49026;52.600;4.694;2023-04-06T06:27:03;21.88;;;9.85;;
62724;SDS011;49026;52.600;4.694;2023-04-06T06:29:28;20.02;;;10.07;;
62724;SDS011;49026;52.600;4.694;2023-04-06T06:31:54;18.02;;;9.45;;
62724;SDS011;49026;52.600;4.694;2023-04-06T06:34:22;20.17;;;10.68;;
62724;SDS011;49026;52.600;4.694;2023-04-06T06:36:50;18.58;;;10.10;;
62724;SDS011;49026;52.600;4.694;2023-04-06T06:39:16;23.08;;;11.18;;
62724;SDS011;49026;52.600;4.694;2023-04-06T06:41:41;20.33;;;9.25;;
62724;SDS011;49026;52.600;4.694;2023-04-06T06:44:06;17.38;;;8.65;;
62724;SDS011;49026;52.600;4.694;2023-04-06T06:46:32;17.73;;;9.88;;
62724;SDS011;49026;52.600;4.694;2023-04-06T06:48:58;22.75;;;12.20;;
62724;SDS011;49026;52.600;4.694;2023-04-06T06:51:26;17.85;;;9.82;;
62724;SDS011;49026;52.600;4.694;2023-04-06T06:53:51;20.52;;;10.80;;
62724;SDS011;49026;52.600;4.694;2023-04-06T06:56:16;20.85;;;11.20;;
62724;SDS011;49026;52.600;4.694;2023-04-06T06:58:41;21.48;;;11.57;;
62724;SDS011;49026;52.600;4.694;2023-04-06T07:01:07;22.27;;;11.25;;
62724;SDS011;49026;52.600;4.694;2023-04-06T07:03:32;22.08;;;11.18;;
62724;SDS011;49026;52.600;4.694;2023-04-06T07:05:57;24.33;;;12.70;;
62724;SDS011;49026;52.600;4.694;2023-04-06T07:08:23;20.70;;;12.27;;
62724;SDS011;49026;52.600;4.694;2023-04-06T07:10:52;25.02;;;12.80;;
62724;SDS011;49026;52.600;4.694;2023-04-06T07:13:20;22.25;;;11.93;;
62724;SDS011;49026;52.600;4.694;2023-04-06T07:15:48;23.52;;;11.75;;
62724;SDS011;49026;52.600;4.694;2023-04-06T07:18:14;24.05;;;12.85;;
62724;SDS011;49026;52.600;4.694;2023-04-06T07:20:39;25.27;;;12.68;;
62724;SDS011;49026;52.600;4.694;2023-04-06T07:23:07;26.05;;;14.57;;
62724;SDS011;49026;52.600;4.694;2023-04-06T07:25:32;28.40;;;13.13;;
62724;SDS011;49026;52.600;4.694;2023-04-06T07:27:57;22.13;;;12.82;;
62724;SDS011;49026;52.600;4.694;2023-04-06T07:30:23;25.17;;;13.25;;
62724;SDS011;49026;52.600;4.694;2023-04-06T07:32:51;28.35;;;14.00;;
62724;SDS011;49026;52.600;4.694;2023-04-06T07:35:16;23.52;;;14.23;;
62724;SDS011;49026;52.600;4.694;2023-04-06T07:37:43;31.77;;;15.70;;
62724;SDS011;49026;52.600;4.694;2023-04-06T07:40:09;22.63;;;12.50;;
62724;SDS011;49026;52.600;4.694;2023-04-06T07:42:34;32.05;;;15.45;;
62724;SDS011;49026;52.600;4.694;2023-04-06T07:45:00;22.85;;;12.75;;
62724;SDS011;49026;52.600;4.694;2023-04-06T07:47:28;23.17;;;13.68;;
62724;SDS011;49026;52.600;4.694;2023-04-06T07:49:56;24.63;;;14.95;;
62724;SDS011;49026;52.600;4.694;2023-04-06T07:52:21;30.20;;;14.82;;
62724;SDS011;49026;52.600;4.694;2023-04-06T07:54:46;26.95;;;14.88;;
62724;SDS011;49026;52.600;4.694;2023-04-06T07:57:14;25.13;;;13.82;;
62724;SDS011;49026;52.600;4.694;2023-04-06T07:59:39;28.50;;;16.30;;
62724;SDS011;49026;52.600;4.694;2023-04-06T08:02:05;30.73;;;16.75;;
62724;SDS011;49026;52.600;4.694;2023-04-06T08:04:31;33.10;;;17.13;;
62724;SDS011;49026;52.600;4.694;2023-04-06T08:06:56;33.50;;;16.33;;
62724;SDS011;49026;52.600;4.694;2023-04-06T08:09:21;34.08;;;17.92;;
62724;SDS011;49026;52.600;4.694;2023-04-06T08:11:49;44.88;;;17.42;;
62724;SDS011;49026;52.600;4.694;2023-04-06T08:14:14;34.47;;;17.77;;
62724;SDS011;49026;52.600;4.694;2023-04-06T08:16:41;30.45;;;16.55;;
62724;SDS011;49026;52.600;4.694;2023-04-06T08:19:09;31.13;;;18.48;;
62724;SDS011;49026;52.600;4.694;2023-04-06T08:21:35;30.20;;;16.67;;
62724;SDS011;49026;52.600;4.694;2023-04-06T08:24:01;33.30;;;18.65;;
62724;SDS011;49026;52.600;4.694;2023-04-06T08:26:29;33.00;;;18.27;;
62724;SDS011;49026;52.600;4.694;2023-04-06T08:28:54;35.25;;;18.17;;
62724;SDS011;49026;52.600;4.694;2023-04-06T08:31:19;30.83;;;17.98;;
62724;SDS011;49026;52.600;4.694;2023-04-06T08:33:47;29.92;;;15.52;;
62724;SDS011;49026;52.600;4.694;2023-04-06T08:36:13;30.45;;;16.25;;
62724;SDS011;49026;52.600;4.694;2023-04-06T08:38:40;29.45;;;16.80;;
62724;SDS011;49026;52.600;4.694;2023-04-06T08:41:09;29.70;;;17.08;;
62724;SDS011;49026;52.600;4.694;2023-04-06T08:43:38;33.40;;;18.63;;
62724;SDS011;49026;52.600;4.694;2023-04-06T08:46:08;33.20;;;16.58;;
62724;SDS011;49026;52.600;4.694;2023-04-06T08:48:41;28.15;;;16.40;;
62724;SDS011;49026;52.600;4.694;2023-04-06T08:51:10;29.88;;;15.50;;
62724;SDS011;49026;52.600;4.694;2023-04-06T08:53:41;25.00;;;15.15;;
62724;SDS011;49026;52.600;4.694;2023-04-06T08:56:06;25.70;;;15.63;;
62724;SDS011;49026;52.600;4.694;2023-04-06T08:58:35;18.83;;;10.57;;
62724;SDS011;49026;52.600;4.694;2023-04-06T09:01:03;27.90;;;15.23;;
62724;SDS011;49026;52.600;4.694;2023-04-06T09:03:35;28.42;;;15.50;;
62724;SDS011;49026;52.600;4.694;2023-04-06T09:06:04;23.98;;;13.73;;
62724;SDS011;49026;52.600;4.694;2023-04-06T09:08:35;23.05;;;13.90;;
62724;SDS011;49026;52.600;4.694;2023-04-06T09:11:03;22.58;;;11.93;;
62724;SDS011;49026;52.600;4.694;2023-04-06T09:13:31;28.27;;;15.60;;
62724;SDS011;49026;52.600;4.694;2023-04-06T09:16:08;21.60;;;12.63;;
62724;SDS011;49026;52.600;4.694;2023-04-06T09:18:34;24.45;;;11.90;;
62724;SDS011;49026;52.600;4.694;2023-04-06T09:21:00;27.50;;;15.70;;
62724;SDS011;49026;52.600;4.694;2023-04-06T09:23:29;27.70;;;15.40;;
62724;SDS011;49026;52.600;4.694;2023-04-06T09:26:07;27.13;;;16.15;;
62724;SDS011;49026;52.600;4.694;2023-04-06T09:29:07;28.45;;;16.13;;
62724;SDS011;49026;52.600;4.694;2023-04-06T09:33:58;33.10;;;16.55;;
62724;SDS011;49026;52.600;4.694;2023-04-06T09:36:32;28.98;;;16.30;;
62724;SDS011;49026;52.600;4.694;2023-04-06T09:39:00;25.85;;;14.20;;
62724;SDS011;49026;52.600;4.694;2023-04-06T09:41:28;21.02;;;10.85;;
62724;SDS011;49026;52.600;4.694;2023-04-06T09:46:57;22.60;;;12.48;;
62724;SDS011;49026;52.600;4.694;2023-04-06T09:49:22;23.25;;;12.02;;
62724;SDS011;49026;52.600;4.694;2023-04-06T09:52:04;27.83;;;14.53;;
62724;SDS011;49026;52.600;4.694;2023-04-06T09:54:34;25.38;;;11.07;;
62724;SDS011;49026;52.600;4.694;2023-04-06T10:05:02;25.38;;;16.67;;
62724;SDS011;49026;52.600;4.694;2023-04-06T10:07:34;26.00;;;15.77;;
62724;SDS011;49026;52.600;4.694;2023-04-06T10:10:01;21.75;;;12.85;;
62724;SDS011;49026;52.600;4.694;2023-04-06T10:12:30;16.05;;;10.18;;
62724;SDS011;49026;52.600;4.694;2023-04-06T10:14:57;28.42;;;15.63;;
62724;SDS011;49026;52.600;4.694;2023-04-06T10:17:22;24.60;;;14.98;;
62724;SDS011;49026;52.600;4.694;2023-04-06T10:19:55;25.90;;;13.75;;
62724;SDS011;49026;52.600;4.694;2023-04-06T10:22:51;24.30;;;14.90;;
62724;SDS011;49026;52.600;4.694;2023-04-06T10:25:34;18.02;;;10.85;;
62724;SDS011;49026;52.600;4.694;2023-04-06T10:28:00;40.15;;;19.90;;
62724;SDS011;49026;52.600;4.694;2023-04-06T10:30:32;19.42;;;11.52;;
62724;SDS011;49026;52.600;4.694;2023-04-06T10:33:12;24.60;;;11.70;;
62724;SDS011;49026;52.600;4.694;2023-04-06T10:35:38;21.77;;;13.30;;
62724;SDS011;49026;52.600;4.694;2023-04-06T10:38:04;22.50;;;12.85;;
62724;SDS011;49026;52.600;4.694;2023-04-06T10:40:30;27.05;;;16.27;;
62724;SDS011;49026;52.600;4.694;2023-04-06T10:43:06;21.83;;;12.45;;
62724;SDS011;49026;52.600;4.694;2023-04-06T10:45:35;19.08;;;11.05;;
62724;SDS011;49026;52.600;4.694;2023-04-06T10:48:01;23.92;;;9.85;;
62724;SDS011;49026;52.600;4.694;2023-04-06T10:50:38;13.13;;;7.03;;
62724;SDS011;49026;52.600;4.694;2023-04-06T10:53:07;11.13;;;6.57;;
62724;SDS011;49026;52.600;4.694;2023-04-06T10:55:32;15.60;;;7.95;;
62724;SDS011;49026;52.600;4.694;2023-04-06T10:57:59;13.95;;;7.10;;
62724;SDS011;49026;52.600;4.694;2023-04-06T11:00:24;13.82;;;6.32;;
62724;SDS011;49026;52.600;4.694;2023-04-06T11:02:50;12.35;;;5.47;;
62724;SDS011;49026;52.600;4.694;2023-04-06T11:05:15;10.05;;;5.85;;
62724;SDS011;49026;52.600;4.694;2023-04-06T11:07:41;13.63;;;8.15;;
62724;SDS011;49026;52.600;4.694;2023-04-06T11:10:07;12.43;;;7.15;;
62724;SDS011;49026;52.600;4.694;2023-04-06T11:12:33;13.68;;;6.00;;
62724;SDS011;49026;52.600;4.694;2023-04-06T11:15:02;14.93;;;7.88;;
62724;SDS011;49026;52.600;4.694;2023-04-06T11:17:34;13.57;;;7.50;;
62724;SDS011;49026;52.600;4.694;2023-04-06T11:20:01;13.15;;;6.32;;
62724;SDS011;49026;52.600;4.694;2023-04-06T11:22:27;12.38;;;5.82;;
62724;SDS011;49026;52.600;4.694;2023-04-06T11:24:53;12.90;;;6.50;;
62724;SDS011;49026;52.600;4.694;2023-04-06T11:27:29;13.45;;;6.75;;
62724;SDS011;49026;52.600;4.694;2023-04-06T11:29:56;7.60;;;4.78;;
62724;SDS011;49026;52.600;4.694;2023-04-06T11:32:24;10.77;;;6.35;;
62724;SDS011;49026;52.600;4.694;2023-04-06T11:34:50;8.43;;;4.30;;
62724;SDS011;49026;52.600;4.694;2023-04-06T11:37:15;5.72;;;3.83;;
62724;SDS011;49026;52.600;4.694;2023-04-06T11:39:44;9.15;;;5.43;;
62724;SDS011;49026;52.600;4.694;2023-04-06T11:42:20;8.48;;;4.20;;
62724;SDS011;49026;52.600;4.694;2023-04-06T11:44:46;10.45;;;6.65;;
62724;SDS011;49026;52.600;4.694;2023-04-06T11:47:15;6.72;;;4.10;;
62724;SDS011;49026;52.600;4.694;2023-04-06T11:49:41;10.50;;;6.70;;
62724;SDS011;49026;52.600;4.694;2023-04-06T11:52:25;8.65;;;5.63;;
62724;SDS011;49026;52.600;4.694;2023-04-06T11:54:53;9.10;;;5.07;;
62724;SDS011;49026;52.600;4.694;2023-04-06T11:57:19;11.00;;;6.50;;
62724;SDS011;49026;52.600;4.694;2023-04-06T11:59:46;7.40;;;4.40;;
62724;SDS011;49026;52.600;4.694;2023-04-06T12:02:11;13.05;;;6.90;;
62724;SDS011;49026;52.600;4.694;2023-04-06T12:04:37;7.18;;;4.75;;
62724;SDS011;49026;52.600;4.694;2023-04-06T12:07:03;9.75;;;6.05;;
62724;SDS011;49026;52.600;4.694;2023-04-06T12:09:29;10.57;;;6.35;;
62724;SDS011;49026;52.600;4.694;2023-04-06T12:11:55;9.98;;;4.53;;
62724;SDS011;49026;52.600;4.694;2023-04-06T12:14:20;10.63;;;4.85;;
62724;SDS011;49026;52.600;4.694;2023-04-06T12:16:48;9.50;;;5.55;;
62724;SDS011;49026;52.600;4.694;2023-04-06T12:19:14;10.73;;;5.80;;
62724;SDS011;49026;52.600;4.694;2023-04-06T12:21:40;13.18;;;6.70;;
62724;SDS011;49026;52.600;4.694;2023-04-06T12:24:07;10.57;;;6.93;;
62724;SDS011;49026;52.600;4.694;2023-04-06T12:26:33;10.82;;;4.78;;
62724;SDS011;49026;52.600;4.694;2023-04-06T12:28:59;7.57;;;4.40;;
62724;SDS011;49026;52.600;4.694;2023-04-06T12:31:37;8.70;;;5.47;;
62724;SDS011;49026;52.600;4.694;2023-04-06T12:34:06;7.72;;;4.18;;
62724;SDS011;49026;52.600;4.694;2023-04-06T12:36:31;8.27;;;4.38;;
62724;SDS011;49026;52.600;4.694;2023-04-06T12:38:59;10.32;;;7.10;;
62724;SDS011;49026;52.600;4.694;2023-04-06T12:41:25;7.78;;;4.57;;
62724;SDS011;49026;52.600;4.694;2023-04-06T12:43:52;8.02;;;4.03;;
62724;SDS011;49026;52.600;4.694;2023-04-06T12:46:18;12.80;;;6.50;;
62724;SDS011;49026;52.600;4.694;2023-04-06T12:48:43;11.90;;;6.18;;
62724;SDS011;49026;52.600;4.694;2023-04-06T12:51:08;6.95;;;4.13;;
62724;SDS011;49026;52.600;4.694;2023-04-06T12:53:34;8.60;;;4.72;;
62724;SDS011;49026;52.600;4.694;2023-04-06T12:55:59;5.90;;;3.78;;
62724;SDS011;49026;52.600;4.694;2023-04-06T12:58:26;9.00;;;6.07;;
62724;SDS011;49026;52.600;4.694;2023-04-06T13:00:52;8.10;;;5.20;;
62724;SDS011;49026;52.600;4.694;2023-04-06T13:03:20;9.48;;;3.85;;
62724;SDS011;49026;52.600;4.694;2023-04-06T13:05:46;7.85;;;4.35;;
62724;SDS011;49026;52.600;4.694;2023-04-06T13:08:12;6.28;;;3.95;;
62724;SDS011;49026;52.600;4.694;2023-04-06T13:10:43;6.90;;;3.85;;
62724;SDS011;49026;52.600;4.694;2023-04-06T13:13:11;7.90;;;4.80;;
62724;SDS011;49026;52.600;4.694;2023-04-06T13:15:38;11.07;;;5.32;;
62724;SDS011;49026;52.600;4.694;2023-04-06T13:18:06;7.82;;;5.38;;
62724;SDS011;49026;52.600;4.694;2023-04-06T13:20:32;7.38;;;4.15;;
62724;SDS011;49026;52.600;4.694;2023-04-06T13:22:57;8.70;;;5.10;;
62724;SDS011;49026;52.600;4.694;2023-04-06T13:25:23;10.65;;;6.45;;
62724;SDS011;49026;52.600;4.694;2023-04-06T13:27:48;11.57;;;5.25;;
62724;SDS011;49026;52.600;4.694;2023-04-06T13:30:14;9.93;;;6.10;;
62724;SDS011;49026;52.600;4.694;2023-04-06T13:32:42;9.88;;;6.15;;
62724;SDS011;49026;52.600;4.694;2023-04-06T13:35:07;7.50;;;4.38;;
62724;SDS011;49026;52.600;4.694;2023-04-06T13:37:33;9.68;;;5.60;;
62724;SDS011;49026;52.600;4.694;2023-04-06T13:39:59;7.88;;;4.93;;
62724;SDS011;49026;52.600;4.694;2023-04-06T13:42:25;10.15;;;6.00;;
62724;SDS011;49026;52.600;4.694;2023-04-06T13:44:51;8.82;;;5.88;;
62724;SDS011;49026;52.600;4.694;2023-04-06T13:47:20;6.50;;;3.40;;
62724;SDS011;49026;52.600;4.694;2023-04-06T13:49:49;8.48;;;4.20;;
62724;SDS011;49026;52.600;4.694;2023-04-06T13:52:15;8.27;;;5.63;;
62724;SDS011;49026;52.600;4.694;2023-04-06T13:54:46;7.47;;;4.40;;
62724;SDS011;49026;52.600;4.694;2023-04-06T13:57:11;9.65;;;5.93;;
62724;SDS011;49026;52.600;4.694;2023-04-06T13:59:37;7.63;;;3.25;;
62724;SDS011;49026;52.600;4.694;2023-04-06T14:02:06;7.78;;;4.07;;
62724;SDS011;49026;52.600;4.694;2023-04-06T14:04:33;5.97;;;3.60;;
62724;SDS011;49026;52.600;4.694;2023-04-06T14:07:00;12.15;;;5.13;;
62724;SDS011;49026;52.600;4.694;2023-04-06T14:09:26;8.70;;;5.40;;
62724;SDS011;49026;52.600;4.694;2023-04-06T14:11:52;3.90;;;2.63;;
62724;SDS011;49026;52.600;4.694;2023-04-06T14:14:18;9.55;;;5.78;;
62724;SDS011;49026;52.600;4.694;2023-04-06T14:16:46;11.30;;;5.40;;
62724;SDS011;49026;52.600;4.694;2023-04-06T14:19:12;7.20;;;3.90;;
62724;SDS011;49026;52.600;4.694;2023-04-06T14:21:40;12.10;;;6.28;;
62724;SDS011;49026;52.600;4.694;2023-04-06T14:24:06;8.90;;;5.93;;
62724;SDS011;49026;52.600;4.694;2023-04-06T14:26:33;7.10;;;4.22;;
62724;SDS011;49026;52.600;4.694;2023-04-06T14:29:01;5.90;;;3.17;;
62724;SDS011;49026;52.600;4.694;2023-04-06T14:31:27;9.73;;;5.75;;
62724;SDS011;49026;52.600;4.694;2023-04-06T14:33:55;10.48;;;4.53;;
62724;SDS011;49026;52.600;4.694;2023-04-06T14:36:21;7.32;;;4.22;;
62724;SDS011;49026;52.600;4.694;2023-04-06T14:38:52;9.43;;;4.60;;
62724;SDS011;49026;52.600;4.694;2023-04-06T14:41:18;10.90;;;6.35;;
62724;SDS011;49026;52.600;4.694;2023-04-06T14:43:45;11.55;;;6.75;;